sensor_id;sensor_type;location;lat;lon;timestamp;P1;durP1;ratioP1;P2;durP2;ratioP2
66751;SDS011;53663;42.676;23.238;2022-07-24T00:01:52;16.35;;;6.68;;
66751;SDS011;53663;42.676;23.238;2022-07-24T00:04:18;17.02;;;6.85;;
66751;SDS011;53663;42.676;23.238;2022-07-24T00:06:43;16.77;;;6.90;;
66751;SDS011;53663;42.676;23.238;2022-07-24T00:09:09;15.77;;;6.25;;
66751;SDS011;53663;42.676;23.238;2022-07-24T00:11:35;11.23;;;5.80;;
66751;SDS011;53663;42.676;23.238;2022-07-24T00:14:00;15.20;;;6.18;;
66751;SDS011;53663;42.676;23.238;2022-07-24T00:16:26;15.55;;;5.88;;
66751;SDS011;53663;42.676;23.238;2022-07-24T00:18:52;16.10;;;6.68;;
66751;SDS011;53663;42.676;23.238;2022-07-24T00:21:17;19.52;;;6.00;;
66751;SDS011;53663;42.676;23.238;2022-07-24T00:23:43;13.30;;;5.95;;
66751;SDS011;53663;42.676;23.238;2022-07-24T00:26:09;20.40;;;6.13;;
66751;SDS011;53663;42.676;23.238;2022-07-24T00:28:35;25.27;;;6.10;;
66751;SDS011;53663;42.676;23.238;2022-07-24T00:31:01;20.63;;;5.97;;
66751;SDS011;53663;42.676;23.238;2022-07-24T00:33:27;19.50;;;5.47;;
66751;SDS011;53663;42.676;23.238;2022-07-24T00:35:53;15.43;;;5.75;;
66751;SDS011;53663;42.676;23.238;2022-07-24T00:38:18;17.52;;;6.50;;
66751;SDS011;53663;42.676;23.238;2022-07-24T00:40:44;23.35;;;6.00;;
66751;SDS011;53663;42.676;23.238;2022-07-24T00:43:10;18.77;;;6.03;;
66751;SDS011;53663;42.676;23.238;2022-07-24T00:45:35;14.13;;;5.65;;
66751;SDS011;53663;42.676;23.238;2022-07-24T00:48:01;15.95;;;6.53;;
66751;SDS011;53663;42.676;23.238;2022-07-24T00:50:28;13.85;;;5.43;;
66751;SDS011;53663;42.676;23.238;2022-07-24T00:52:55;15.93;;;5.85;;
66751;SDS011;53663;42.676;23.238;2022-07-24T00:55:21;16.45;;;5.97;;
66751;SDS011;53663;42.676;23.238;2022-07-24T00:57:47;15.52;;;5.95;;
66751;SDS011;53663;42.676;23.238;2022-07-24T01:00:15;17.80;;;5.90;;
66751;SDS011;53663;42.676;23.238;2022-07-24T01:02:42;15.57;;;5.68;;
66751;SDS011;53663;42.676;23.238;2022-07-24T01:05:09;17.23;;;5.68;;
66751;SDS011;53663;42.676;23.238;2022-07-24T01:07:35;18.48;;;5.93;;
66751;SDS011;53663;42.676;23.238;2022-07-24T01:10:02;18.08;;;5.20;;
66751;SDS011;53663;42.676;23.238;2022-07-24T01:12:29;13.30;;;5.60;;
66751;SDS011;53663;42.676;23.238;2022-07-24T01:14:56;11.30;;;5.28;;
66751;SDS011;53663;42.676;23.238;2022-07-24T01:17:22;15.60;;;5.65;;
66751;SDS011;53663;42.676;23.238;2022-07-24T01:19:47;13.32;;;5.30;;
66751;SDS011;53663;42.676;23.238;2022-07-24T01:22:13;17.23;;;5.53;;
66751;SDS011;53663;42.676;23.238;2022-07-24T01:24:38;17.40;;;6.40;;
66751;SDS011;53663;42.676;23.238;2022-07-24T01:27:04;15.13;;;5.63;;
66751;SDS011;53663;42.676;23.238;2022-07-24T01:29:30;11.43;;;5.53;;
66751;SDS011;53663;42.676;23.238;2022-07-24T01:31:55;13.82;;;5.68;;
66751;SDS011;53663;42.676;23.238;2022-07-24T01:34:21;13.45;;;6.03;;
66751;SDS011;53663;42.676;23.238;2022-07-24T01:36:47;16.52;;;5.55;;
66751;SDS011;53663;42.676;23.238;2022-07-24T01:39:12;12.50;;;5.57;;
66751;SDS011;53663;42.676;23.238;2022-07-24T01:41:38;16.65;;;5.93;;
66751;SDS011;53663;42.676;23.238;2022-07-24T01:44:03;17.15;;;6.15;;
66751;SDS011;53663;42.676;23.238;2022-07-24T01:46:29;15.35;;;5.75;;
66751;SDS011;53663;42.676;23.238;2022-07-24T01:48:55;13.40;;;5.60;;
66751;SDS011;53663;42.676;23.238;2022-07-24T01:51:20;13.05;;;5.72;;
66751;SDS011;53663;42.676;23.238;2022-07-24T01:53:46;16.35;;;5.85;;
66751;SDS011;53663;42.676;23.238;2022-07-24T01:56:11;10.77;;;4.95;;
66751;SDS011;53663;42.676;23.238;2022-07-24T01:58:37;14.63;;;5.45;;
66751;SDS011;53663;42.676;23.238;2022-07-24T02:01:04;25.88;;;5.85;;
66751;SDS011;53663;42.676;23.238;2022-07-24T02:03:30;23.90;;;6.63;;
66751;SDS011;53663;42.676;23.238;2022-07-24T02:05:56;13.85;;;5.57;;
66751;SDS011;53663;42.676;23.238;2022-07-24T02:08:21;10.65;;;5.30;;
66751;SDS011;53663;42.676;23.238;2022-07-24T02:10:47;17.15;;;5.88;;
66751;SDS011;53663;42.676;23.238;2022-07-24T02:13:13;14.77;;;5.93;;
66751;SDS011;53663;42.676;23.238;2022-07-24T02:15:38;17.10;;;6.25;;
66751;SDS011;53663;42.676;23.238;2022-07-24T02:18:04;16.83;;;5.95;;
66751;SDS011;53663;42.676;23.238;2022-07-24T02:20:30;12.80;;;5.43;;
66751;SDS011;53663;42.676;23.238;2022-07-24T02:22:55;12.23;;;5.50;;
66751;SDS011;53663;42.676;23.238;2022-07-24T02:25:21;18.42;;;6.07;;
66751;SDS011;53663;42.676;23.238;2022-07-24T02:27:47;19.20;;;6.03;;
66751;SDS011;53663;42.676;23.238;2022-07-24T02:30:17;14.77;;;6.85;;
66751;SDS011;53663;42.676;23.238;2022-07-24T02:32:43;17.85;;;6.40;;
66751;SDS011;53663;42.676;23.238;2022-07-24T02:35:09;15.32;;;6.57;;
66751;SDS011;53663;42.676;23.238;2022-07-24T02:37:36;18.42;;;6.88;;
66751;SDS011;53663;42.676;23.238;2022-07-24T02:40:03;20.65;;;6.55;;
66751;SDS011;53663;42.676;23.238;2022-07-24T02:42:30;19.70;;;6.47;;
66751;SDS011;53663;42.676;23.238;2022-07-24T02:44:56;13.18;;;6.22;;
66751;SDS011;53663;42.676;23.238;2022-07-24T02:47:21;25.33;;;7.45;;
66751;SDS011;53663;42.676;23.238;2022-07-24T02:49:47;15.13;;;5.82;;
66751;SDS011;53663;42.676;23.238;2022-07-24T02:52:12;27.70;;;6.53;;
66751;SDS011;53663;42.676;23.238;2022-07-24T02:54:38;21.00;;;6.78;;
66751;SDS011;53663;42.676;23.238;2022-07-24T02:57:03;18.42;;;6.28;;
66751;SDS011;53663;42.676;23.238;2022-07-24T02:59:29;18.33;;;7.00;;
66751;SDS011;53663;42.676;23.238;2022-07-24T03:01:54;16.33;;;5.97;;
66751;SDS011;53663;42.676;23.238;2022-07-24T03:04:20;14.70;;;5.88;;
66751;SDS011;53663;42.676;23.238;2022-07-24T03:06:45;12.30;;;6.07;;
66751;SDS011;53663;42.676;23.238;2022-07-24T03:09:11;18.60;;;6.95;;
66751;SDS011;53663;42.676;23.238;2022-07-24T03:11:36;11.52;;;5.55;;
66751;SDS011;53663;42.676;23.238;2022-07-24T03:14:02;12.10;;;6.38;;
66751;SDS011;53663;42.676;23.238;2022-07-24T03:16:27;13.27;;;6.20;;
66751;SDS011;53663;42.676;23.238;2022-07-24T03:18:53;21.23;;;7.30;;
66751;SDS011;53663;42.676;23.238;2022-07-24T03:21:18;19.10;;;6.43;;
66751;SDS011;53663;42.676;23.238;2022-07-24T03:23:44;17.40;;;6.30;;
66751;SDS011;53663;42.676;23.238;2022-07-24T03:26:10;11.82;;;6.22;;
66751;SDS011;53663;42.676;23.238;2022-07-24T03:28:36;16.55;;;6.35;;
66751;SDS011;53663;42.676;23.238;2022-07-24T03:31:02;14.20;;;6.13;;
66751;SDS011;53663;42.676;23.238;2022-07-24T03:33:28;19.98;;;6.78;;
66751;SDS011;53663;42.676;23.238;2022-07-24T03:35:54;15.95;;;5.53;;
66751;SDS011;53663;42.676;23.238;2022-07-24T03:38:20;13.38;;;6.00;;
66751;SDS011;53663;42.676;23.238;2022-07-24T03:40:46;11.75;;;5.20;;
66751;SDS011;53663;42.676;23.238;2022-07-24T03:43:12;15.85;;;5.70;;
66751;SDS011;53663;42.676;23.238;2022-07-24T03:45:37;15.57;;;5.90;;
66751;SDS011;53663;42.676;23.238;2022-07-24T03:48:03;15.52;;;5.90;;
66751;SDS011;53663;42.676;23.238;2022-07-24T03:50:29;14.60;;;6.03;;
66751;SDS011;53663;42.676;23.238;2022-07-24T03:52:55;15.77;;;6.78;;
66751;SDS011;53663;42.676;23.238;2022-07-24T03:55:21;13.40;;;6.68;;
66751;SDS011;53663;42.676;23.238;2022-07-24T03:57:46;13.57;;;6.18;;
66751;SDS011;53663;42.676;23.238;2022-07-24T04:00:12;14.82;;;5.80;;
66751;SDS011;53663;42.676;23.238;2022-07-24T04:02:38;14.13;;;5.90;;
66751;SDS011;53663;42.676;23.238;2022-07-24T04:05:05;26.75;;;6.90;;
66751;SDS011;53663;42.676;23.238;2022-07-24T04:07:34;12.98;;;5.75;;
66751;SDS011;53663;42.676;23.238;2022-07-24T04:10:00;24.85;;;7.15;;
66751;SDS011;53663;42.676;23.238;2022-07-24T04:12:25;14.57;;;6.70;;
66751;SDS011;53663;42.676;23.238;2022-07-24T04:14:51;15.07;;;5.60;;
66751;SDS011;53663;42.676;23.238;2022-07-24T04:17:16;21.17;;;6.57;;
66751;SDS011;53663;42.676;23.238;2022-07-24T04:19:42;12.30;;;5.70;;
66751;SDS011;53663;42.676;23.238;2022-07-24T04:22:07;17.35;;;6.60;;
66751;SDS011;53663;42.676;23.238;2022-07-24T04:24:33;18.17;;;5.97;;
66751;SDS011;53663;42.676;23.238;2022-07-24T04:26:59;20.33;;;6.07;;
66751;SDS011;53663;42.676;23.238;2022-07-24T04:29:24;14.70;;;6.10;;
66751;SDS011;53663;42.676;23.238;2022-07-24T04:31:50;24.08;;;7.25;;
66751;SDS011;53663;42.676;23.238;2022-07-24T04:34:15;22.08;;;6.28;;
66751;SDS011;53663;42.676;23.238;2022-07-24T04:36:41;17.50;;;6.22;;
66751;SDS011;53663;42.676;23.238;2022-07-24T04:39:07;16.95;;;5.85;;
66751;SDS011;53663;42.676;23.238;2022-07-24T04:41:32;14.60;;;5.80;;
66751;SDS011;53663;42.676;23.238;2022-07-24T04:43:58;18.77;;;6.05;;
66751;SDS011;53663;42.676;23.238;2022-07-24T04:46:23;19.20;;;6.32;;
66751;SDS011;53663;42.676;23.238;2022-07-24T04:48:49;17.90;;;7.32;;
66751;SDS011;53663;42.676;23.238;2022-07-24T04:51:15;17.67;;;7.10;;
66751;SDS011;53663;42.676;23.238;2022-07-24T04:53:40;28.48;;;7.47;;
66751;SDS011;53663;42.676;23.238;2022-07-24T05:09:43;19.55;;;7.63;;
66751;SDS011;53663;42.676;23.238;2022-07-24T05:12:08;23.83;;;7.40;;
66751;SDS011;53663;42.676;23.238;2022-07-24T05:14:34;27.13;;;7.53;;
66751;SDS011;53663;42.676;23.238;2022-07-24T05:16:59;20.52;;;7.28;;
66751;SDS011;53663;42.676;23.238;2022-07-24T05:19:25;17.15;;;6.57;;
66751;SDS011;53663;42.676;23.238;2022-07-24T05:21:51;19.48;;;7.28;;
66751;SDS011;53663;42.676;23.238;2022-07-24T05:24:16;28.30;;;7.88;;
66751;SDS011;53663;42.676;23.238;2022-07-24T05:26:42;20.77;;;7.47;;
66751;SDS011;53663;42.676;23.238;2022-07-24T05:29:07;21.88;;;8.48;;
66751;SDS011;53663;42.676;23.238;2022-07-24T05:31:33;27.08;;;7.68;;
66751;SDS011;53663;42.676;23.238;2022-07-24T05:33:59;21.08;;;7.43;;
66751;SDS011;53663;42.676;23.238;2022-07-24T05:36:27;16.05;;;7.55;;
66751;SDS011;53663;42.676;23.238;2022-07-24T05:38:53;28.75;;;7.53;;
66751;SDS011;53663;42.676;23.238;2022-07-24T05:41:19;22.98;;;6.95;;
66751;SDS011;53663;42.676;23.238;2022-07-24T05:43:45;17.63;;;7.63;;
66751;SDS011;53663;42.676;23.238;2022-07-24T05:46:10;19.65;;;7.15;;
66751;SDS011;53663;42.676;23.238;2022-07-24T05:48:36;18.83;;;6.68;;
66751;SDS011;53663;42.676;23.238;2022-07-24T05:51:01;26.75;;;7.40;;
66751;SDS011;53663;42.676;23.238;2022-07-24T05:53:27;21.83;;;6.70;;
66751;SDS011;53663;42.676;23.238;2022-07-24T05:55:53;23.63;;;6.72;;
66751;SDS011;53663;42.676;23.238;2022-07-24T05:58:18;22.58;;;6.78;;
66751;SDS011;53663;42.676;23.238;2022-07-24T06:00:44;22.63;;;7.20;;
66751;SDS011;53663;42.676;23.238;2022-07-24T06:03:10;30.08;;;7.75;;
66751;SDS011;53663;42.676;23.238;2022-07-24T06:05:36;15.98;;;7.13;;
66751;SDS011;53663;42.676;23.238;2022-07-24T06:08:02;19.52;;;6.95;;
66751;SDS011;53663;42.676;23.238;2022-07-24T06:10:28;20.02;;;7.13;;
66751;SDS011;53663;42.676;23.238;2022-07-24T06:12:54;19.02;;;7.03;;
66751;SDS011;53663;42.676;23.238;2022-07-24T06:15:19;20.63;;;6.88;;
66751;SDS011;53663;42.676;23.238;2022-07-24T06:17:45;18.95;;;6.93;;
66751;SDS011;53663;42.676;23.238;2022-07-24T06:20:11;21.00;;;6.72;;
66751;SDS011;53663;42.676;23.238;2022-07-24T06:22:40;17.40;;;6.45;;
66751;SDS011;53663;42.676;23.238;2022-07-24T06:25:06;17.00;;;7.25;;
66751;SDS011;53663;42.676;23.238;2022-07-24T06:27:32;16.08;;;7.53;;
66751;SDS011;53663;42.676;23.238;2022-07-24T06:29:57;25.85;;;7.38;;
66751;SDS011;53663;42.676;23.238;2022-07-24T06:32:23;25.95;;;7.40;;
66751;SDS011;53663;42.676;23.238;2022-07-24T06:34:49;22.17;;;7.78;;
66751;SDS011;53663;42.676;23.238;2022-07-24T06:37:14;16.13;;;7.20;;
66751;SDS011;53663;42.676;23.238;2022-07-24T06:39:40;29.00;;;7.00;;
66751;SDS011;53663;42.676;23.238;2022-07-24T06:42:06;18.90;;;7.30;;
66751;SDS011;53663;42.676;23.238;2022-07-24T06:44:34;24.25;;;7.25;;
66751;SDS011;53663;42.676;23.238;2022-07-24T06:47:01;23.98;;;7.65;;
66751;SDS011;53663;42.676;23.238;2022-07-24T06:49:26;19.58;;;6.85;;
66751;SDS011;53663;42.676;23.238;2022-07-24T06:51:52;19.80;;;6.65;;
66751;SDS011;53663;42.676;23.238;2022-07-24T06:54:18;27.38;;;6.90;;
66751;SDS011;53663;42.676;23.238;2022-07-24T06:56:43;18.10;;;6.72;;
66751;SDS011;53663;42.676;23.238;2022-07-24T06:59:09;17.05;;;7.03;;
66751;SDS011;53663;42.676;23.238;2022-07-24T07:01:34;14.38;;;6.40;;
66751;SDS011;53663;42.676;23.238;2022-07-24T07:04:00;16.35;;;6.47;;
66751;SDS011;53663;42.676;23.238;2022-07-24T07:06:25;18.90;;;6.72;;
66751;SDS011;53663;42.676;23.238;2022-07-24T07:08:51;27.25;;;7.55;;
66751;SDS011;53663;42.676;23.238;2022-07-24T07:11:16;22.02;;;6.68;;
66751;SDS011;53663;42.676;23.238;2022-07-24T07:13:42;20.38;;;6.97;;
66751;SDS011;53663;42.676;23.238;2022-07-24T07:16:07;19.80;;;7.38;;
66751;SDS011;53663;42.676;23.238;2022-07-24T07:18:33;32.20;;;14.23;;
66751;SDS011;53663;42.676;23.238;2022-07-24T07:21:01;35.65;;;12.50;;
66751;SDS011;53663;42.676;23.238;2022-07-24T07:23:27;27.02;;;11.60;;
66751;SDS011;53663;42.676;23.238;2022-07-24T07:25:52;16.48;;;7.53;;
66751;SDS011;53663;42.676;23.238;2022-07-24T07:28:19;19.13;;;6.65;;
66751;SDS011;53663;42.676;23.238;2022-07-24T07:30:45;17.80;;;8.80;;
66751;SDS011;53663;42.676;23.238;2022-07-24T07:33:10;20.27;;;8.48;;
66751;SDS011;53663;42.676;23.238;2022-07-24T07:35:36;27.35;;;12.68;;
66751;SDS011;53663;42.676;23.238;2022-07-24T07:38:01;19.13;;;9.85;;
66751;SDS011;53663;42.676;23.238;2022-07-24T07:40:27;36.60;;;17.50;;
66751;SDS011;53663;42.676;23.238;2022-07-24T07:42:53;35.20;;;18.85;;
66751;SDS011;53663;42.676;23.238;2022-07-24T07:45:18;21.67;;;7.28;;
66751;SDS011;53663;42.676;23.238;2022-07-24T07:47:44;14.55;;;7.18;;
66751;SDS011;53663;42.676;23.238;2022-07-24T07:50:10;12.63;;;7.38;;
66751;SDS011;53663;42.676;23.238;2022-07-24T07:52:36;25.92;;;8.65;;
66751;SDS011;53663;42.676;23.238;2022-07-24T07:55:03;20.08;;;7.80;;
66751;SDS011;53663;42.676;23.238;2022-07-24T07:57:29;20.80;;;9.70;;
66751;SDS011;53663;42.676;23.238;2022-07-24T07:59:54;21.20;;;9.77;;
66751;SDS011;53663;42.676;23.238;2022-07-24T08:02:20;19.83;;;8.50;;
66751;SDS011;53663;42.676;23.238;2022-07-24T08:04:45;24.90;;;7.57;;
66751;SDS011;53663;42.676;23.238;2022-07-24T08:07:11;26.42;;;9.93;;
66751;SDS011;53663;42.676;23.238;2022-07-24T08:09:36;42.13;;;17.73;;
66751;SDS011;53663;42.676;23.238;2022-07-24T08:12:03;16.50;;;9.02;;
66751;SDS011;53663;42.676;23.238;2022-07-24T08:14:29;23.88;;;10.30;;
66751;SDS011;53663;42.676;23.238;2022-07-24T08:16:55;26.83;;;8.10;;
66751;SDS011;53663;42.676;23.238;2022-07-24T08:19:20;15.48;;;7.38;;
66751;SDS011;53663;42.676;23.238;2022-07-24T08:21:46;22.35;;;7.57;;
66751;SDS011;53663;42.676;23.238;2022-07-24T08:24:12;21.20;;;7.70;;
66751;SDS011;53663;42.676;23.238;2022-07-24T08:26:37;21.88;;;8.02;;
66751;SDS011;53663;42.676;23.238;2022-07-24T08:29:03;16.00;;;7.03;;
66751;SDS011;53663;42.676;23.238;2022-07-24T08:31:29;18.30;;;8.60;;
66751;SDS011;53663;42.676;23.238;2022-07-24T08:33:55;21.38;;;8.90;;
66751;SDS011;53663;42.676;23.238;2022-07-24T08:36:20;18.17;;;7.40;;
66751;SDS011;53663;42.676;23.238;2022-07-24T08:38:46;26.05;;;8.45;;
66751;SDS011;53663;42.676;23.238;2022-07-24T08:41:12;25.13;;;8.52;;
66751;SDS011;53663;42.676;23.238;2022-07-24T08:43:38;28.35;;;9.75;;
66751;SDS011;53663;42.676;23.238;2022-07-24T08:46:04;19.02;;;9.35;;
66751;SDS011;53663;42.676;23.238;2022-07-24T08:50:59;18.05;;;7.85;;
66751;SDS011;53663;42.676;23.238;2022-07-24T08:53:26;19.75;;;7.60;;
66751;SDS011;53663;42.676;23.238;2022-07-24T08:55:51;17.23;;;7.00;;
66751;SDS011;53663;42.676;23.238;2022-07-24T08:58:17;24.88;;;9.15;;
66751;SDS011;53663;42.676;23.238;2022-07-24T09:00:43;19.17;;;7.90;;
66751;SDS011;53663;42.676;23.238;2022-07-24T09:03:08;17.80;;;7.35;;
66751;SDS011;53663;42.676;23.238;2022-07-24T09:05:52;23.92;;;7.50;;
66751;SDS011;53663;42.676;23.238;2022-07-24T09:08:22;18.48;;;7.10;;
66751;SDS011;53663;42.676;23.238;2022-07-24T09:10:58;31.17;;;8.40;;
66751;SDS011;53663;42.676;23.238;2022-07-24T09:13:26;20.05;;;7.75;;
66751;SDS011;53663;42.676;23.238;2022-07-24T09:15:55;15.32;;;7.40;;
66751;SDS011;53663;42.676;23.238;2022-07-24T09:18:28;25.55;;;8.35;;
66751;SDS011;53663;42.676;23.238;2022-07-24T09:20:56;20.70;;;8.15;;
66751;SDS011;53663;42.676;23.238;2022-07-24T09:23:22;21.77;;;8.00;;
66751;SDS011;53663;42.676;23.238;2022-07-24T09:25:52;23.20;;;7.97;;
66751;SDS011;53663;42.676;23.238;2022-07-24T09:28:19;15.70;;;6.90;;
66751;SDS011;53663;42.676;23.238;2022-07-24T09:30:46;22.25;;;8.10;;
66751;SDS011;53663;42.676;23.238;2022-07-24T09:38:06;17.75;;;7.65;;
66751;SDS011;53663;42.676;23.238;2022-07-24T09:40:35;19.90;;;8.15;;
66751;SDS011;53663;42.676;23.238;2022-07-24T09:43:18;19.33;;;8.00;;
66751;SDS011;53663;42.676;23.238;2022-07-24T09:46:09;29.60;;;6.82;;
66751;SDS011;53663;42.676;23.238;2022-07-24T09:48:39;19.98;;;6.00;;
66751;SDS011;53663;42.676;23.238;2022-07-24T09:51:16;22.88;;;7.00;;
66751;SDS011;53663;42.676;23.238;2022-07-24T09:53:43;15.15;;;6.32;;
66751;SDS011;53663;42.676;23.238;2022-07-24T09:56:16;15.90;;;6.28;;
66751;SDS011;53663;42.676;23.238;2022-07-24T10:01:12;18.35;;;7.63;;
66751;SDS011;53663;42.676;23.238;2022-07-24T10:03:40;15.20;;;7.43;;
66751;SDS011;53663;42.676;23.238;2022-07-24T10:06:08;19.15;;;6.22;;
66751;SDS011;53663;42.676;23.238;2022-07-24T10:08:35;17.02;;;6.28;;
66751;SDS011;53663;42.676;23.238;2022-07-24T10:11:02;12.98;;;6.05;;
66751;SDS011;53663;42.676;23.238;2022-07-24T10:13:28;15.48;;;6.30;;
66751;SDS011;53663;42.676;23.238;2022-07-24T10:18:29;10.85;;;5.90;;
66751;SDS011;53663;42.676;23.238;2022-07-24T10:21:06;23.00;;;7.05;;
66751;SDS011;53663;42.676;23.238;2022-07-24T10:29:23;12.70;;;6.20;;
66751;SDS011;53663;42.676;23.238;2022-07-24T10:31:49;15.48;;;5.95;;
66751;SDS011;53663;42.676;23.238;2022-07-24T10:40:03;13.85;;;5.75;;
66751;SDS011;53663;42.676;23.238;2022-07-24T10:45:30;13.88;;;5.82;;
66751;SDS011;53663;42.676;23.238;2022-07-24T10:47:57;14.20;;;5.28;;
66751;SDS011;53663;42.676;23.238;2022-07-24T10:50:22;12.07;;;5.43;;
66751;SDS011;53663;42.676;23.238;2022-07-24T10:53:21;15.88;;;5.43;;
66751;SDS011;53663;42.676;23.238;2022-07-24T10:55:47;11.67;;;5.67;;
66751;SDS011;53663;42.676;23.238;2022-07-24T10:58:13;13.23;;;5.93;;
66751;SDS011;53663;42.676;23.238;2022-07-24T11:00:44;14.85;;;5.40;;
66751;SDS011;53663;42.676;23.238;2022-07-24T11:03:21;20.92;;;6.00;;
66751;SDS011;53663;42.676;23.238;2022-07-24T11:06:07;10.25;;;5.55;;
66751;SDS011;53663;42.676;23.238;2022-07-24T11:08:47;13.15;;;5.72;;
66751;SDS011;53663;42.676;23.238;2022-07-24T11:13:51;12.88;;;5.78;;
66751;SDS011;53663;42.676;23.238;2022-07-24T11:21:26;33.88;;;7.10;;
66751;SDS011;53663;42.676;23.238;2022-07-24T11:26:40;15.38;;;6.03;;
66751;SDS011;53663;42.676;23.238;2022-07-24T11:29:14;12.10;;;6.03;;
66751;SDS011;53663;42.676;23.238;2022-07-24T11:31:41;9.50;;;5.20;;
66751;SDS011;53663;42.676;23.238;2022-07-24T11:34:08;14.52;;;5.63;;
66751;SDS011;53663;42.676;23.238;2022-07-24T11:36:35;13.15;;;5.80;;
66751;SDS011;53663;42.676;23.238;2022-07-24T11:39:04;16.63;;;6.22;;
66751;SDS011;53663;42.676;23.238;2022-07-24T11:41:51;10.52;;;5.50;;
66751;SDS011;53663;42.676;23.238;2022-07-24T11:44:23;12.38;;;5.95;;
66751;SDS011;53663;42.676;23.238;2022-07-24T11:46:52;18.02;;;5.30;;
66751;SDS011;53663;42.676;23.238;2022-07-24T11:49:18;15.18;;;5.85;;
66751;SDS011;53663;42.676;23.238;2022-07-24T11:51:45;17.05;;;5.60;;
66751;SDS011;53663;42.676;23.238;2022-07-24T11:54:12;14.40;;;5.65;;
66751;SDS011;53663;42.676;23.238;2022-07-24T11:56:39;10.90;;;6.03;;
66751;SDS011;53663;42.676;23.238;2022-07-24T11:59:05;17.67;;;5.45;;
66751;SDS011;53663;42.676;23.238;2022-07-24T12:01:45;14.80;;;5.47;;
66751;SDS011;53663;42.676;23.238;2022-07-24T12:04:11;13.65;;;5.70;;
66751;SDS011;53663;42.676;23.238;2022-07-24T12:06:36;14.98;;;5.43;;
66751;SDS011;53663;42.676;23.238;2022-07-24T12:09:05;12.82;;;5.50;;
66751;SDS011;53663;42.676;23.238;2022-07-24T12:11:35;13.10;;;5.63;;
66751;SDS011;53663;42.676;23.238;2022-07-24T12:14:00;19.37;;;5.93;;
66751;SDS011;53663;42.676;23.238;2022-07-24T12:16:27;13.38;;;6.00;;
66751;SDS011;53663;42.676;23.238;2022-07-24T12:19:11;16.65;;;5.57;;
66751;SDS011;53663;42.676;23.238;2022-07-24T12:21:39;11.02;;;5.47;;
66751;SDS011;53663;42.676;23.238;2022-07-24T12:24:06;11.18;;;5.63;;
66751;SDS011;53663;42.676;23.238;2022-07-24T12:26:32;17.27;;;5.85;;
66751;SDS011;53663;42.676;23.238;2022-07-24T12:29:10;11.05;;;5.32;;
66751;SDS011;53663;42.676;23.238;2022-07-24T12:31:36;19.95;;;6.25;;
66751;SDS011;53663;42.676;23.238;2022-07-24T12:34:02;9.35;;;6.05;;
66751;SDS011;53663;42.676;23.238;2022-07-24T12:36:29;13.80;;;5.70;;
66751;SDS011;53663;42.676;23.238;2022-07-24T12:38:55;12.93;;;5.95;;
66751;SDS011;53663;42.676;23.238;2022-07-24T12:41:25;11.90;;;6.05;;
66751;SDS011;53663;42.676;23.238;2022-07-24T12:43:59;11.32;;;5.78;;
66751;SDS011;53663;42.676;23.238;2022-07-24T12:46:37;15.43;;;5.60;;
66751;SDS011;53663;42.676;23.238;2022-07-24T12:56:53;14.15;;;6.22;;
66751;SDS011;53663;42.676;23.238;2022-07-24T13:01:53;12.75;;;5.60;;
66751;SDS011;53663;42.676;23.238;2022-07-24T13:04:24;8.70;;;5.57;;
66751;SDS011;53663;42.676;23.238;2022-07-24T13:06:52;12.23;;;6.18;;
66751;SDS011;53663;42.676;23.238;2022-07-24T13:09:23;11.05;;;5.78;;
66751;SDS011;53663;42.676;23.238;2022-07-24T13:11:50;11.52;;;6.00;;
66751;SDS011;53663;42.676;23.238;2022-07-24T13:14:17;13.60;;;5.95;;
66751;SDS011;53663;42.676;23.238;2022-07-24T13:16:44;9.90;;;6.05;;
66751;SDS011;53663;42.676;23.238;2022-07-24T13:19:10;11.65;;;5.72;;
66751;SDS011;53663;42.676;23.238;2022-07-24T13:21:36;13.73;;;5.78;;
66751;SDS011;53663;42.676;23.238;2022-07-24T13:24:03;11.85;;;5.90;;
66751;SDS011;53663;42.676;23.238;2022-07-24T13:26:29;8.13;;;5.60;;
66751;SDS011;53663;42.676;23.238;2022-07-24T13:28:55;9.95;;;5.93;;
66751;SDS011;53663;42.676;23.238;2022-07-24T13:31:21;12.85;;;5.97;;
66751;SDS011;53663;42.676;23.238;2022-07-24T13:33:47;10.52;;;6.20;;
66751;SDS011;53663;42.676;23.238;2022-07-24T13:36:14;12.43;;;5.93;;
66751;SDS011;53663;42.676;23.238;2022-07-24T13:38:40;9.90;;;5.78;;
66751;SDS011;53663;42.676;23.238;2022-07-24T13:41:06;10.63;;;5.68;;
66751;SDS011;53663;42.676;23.238;2022-07-24T13:43:32;9.00;;;5.97;;
66751;SDS011;53663;42.676;23.238;2022-07-24T13:45:57;9.05;;;5.15;;
66751;SDS011;53663;42.676;23.238;2022-07-24T13:48:23;14.88;;;5.43;;
66751;SDS011;53663;42.676;23.238;2022-07-24T13:50:49;9.10;;;5.15;;
66751;SDS011;53663;42.676;23.238;2022-07-24T13:53:15;18.05;;;6.40;;
66751;SDS011;53663;42.676;23.238;2022-07-24T13:55:41;19.30;;;6.20;;
66751;SDS011;53663;42.676;23.238;2022-07-24T13:58:06;17.90;;;5.57;;
66751;SDS011;53663;42.676;23.238;2022-07-24T14:00:32;12.10;;;6.30;;
66751;SDS011;53663;42.676;23.238;2022-07-24T14:02:58;10.77;;;6.28;;
66751;SDS011;53663;42.676;23.238;2022-07-24T14:05:24;21.40;;;15.13;;
66751;SDS011;53663;42.676;23.238;2022-07-24T14:07:50;13.50;;;10.55;;
66751;SDS011;53663;42.676;23.238;2022-07-24T14:10:17;17.95;;;8.98;;
66751;SDS011;53663;42.676;23.238;2022-07-24T14:12:43;35.92;;;7.15;;
66751;SDS011;53663;42.676;23.238;2022-07-24T14:15:09;27.75;;;6.20;;
66751;SDS011;53663;42.676;23.238;2022-07-24T14:17:35;33.20;;;6.13;;
66751;SDS011;53663;42.676;23.238;2022-07-24T14:20:01;18.05;;;5.60;;
66751;SDS011;53663;42.676;23.238;2022-07-24T14:22:27;11.23;;;6.10;;
66751;SDS011;53663;42.676;23.238;2022-07-24T14:24:53;16.42;;;5.63;;
66751;SDS011;53663;42.676;23.238;2022-07-24T14:27:18;15.10;;;5.53;;
66751;SDS011;53663;42.676;23.238;2022-07-24T14:29:44;12.13;;;5.85;;
66751;SDS011;53663;42.676;23.238;2022-07-24T14:32:09;14.50;;;5.90;;
66751;SDS011;53663;42.676;23.238;2022-07-24T14:34:35;16.52;;;6.25;;
66751;SDS011;53663;42.676;23.238;2022-07-24T14:37:00;15.70;;;5.10;;
66751;SDS011;53663;42.676;23.238;2022-07-24T14:39:26;22.05;;;5.50;;
66751;SDS011;53663;42.676;23.238;2022-07-24T14:41:53;10.68;;;5.90;;
66751;SDS011;53663;42.676;23.238;2022-07-24T14:44:19;12.98;;;5.40;;
66751;SDS011;53663;42.676;23.238;2022-07-24T14:46:45;9.45;;;5.25;;
66751;SDS011;53663;42.676;23.238;2022-07-24T14:49:10;22.33;;;5.75;;
66751;SDS011;53663;42.676;23.238;2022-07-24T14:51:36;19.55;;;6.60;;
66751;SDS011;53663;42.676;23.238;2022-07-24T14:54:02;14.73;;;6.50;;
66751;SDS011;53663;42.676;23.238;2022-07-24T14:56:28;17.52;;;6.53;;
66751;SDS011;53663;42.676;23.238;2022-07-24T14:58:54;13.18;;;6.25;;
66751;SDS011;53663;42.676;23.238;2022-07-24T15:01:19;13.93;;;5.88;;
66751;SDS011;53663;42.676;23.238;2022-07-24T15:03:45;16.27;;;6.05;;
66751;SDS011;53663;42.676;23.238;2022-07-24T15:06:10;10.15;;;5.25;;
66751;SDS011;53663;42.676;23.238;2022-07-24T15:08:36;20.38;;;5.88;;
66751;SDS011;53663;42.676;23.238;2022-07-24T15:11:01;17.92;;;6.47;;
66751;SDS011;53663;42.676;23.238;2022-07-24T15:13:27;10.40;;;5.53;;
66751;SDS011;53663;42.676;23.238;2022-07-24T15:15:52;13.35;;;6.47;;
66751;SDS011;53663;42.676;23.238;2022-07-24T15:18:19;12.48;;;6.07;;
66751;SDS011;53663;42.676;23.238;2022-07-24T15:20:44;12.73;;;6.13;;